sensor_id;sensor_type;location;lat;lon;timestamp;temperature;humidity
65404;DHT22;52014;52.088;5.096;2023-03-20T00:02:05;10.20;99.90
65404;DHT22;52014;52.088;5.096;2023-03-20T00:04:31;10.10;99.90
65404;DHT22;52014;52.088;5.096;2023-03-20T00:06:56;10.20;99.90
65404;DHT22;52014;52.088;5.096;2023-03-20T00:09:22;10.10;99.90
65404;DHT22;52014;52.088;5.096;2023-03-20T00:11:50;10.10;99.90
65404;DHT22;52014;52.088;5.096;2023-03-20T00:14:17;10.20;99.90
65404;DHT22;52014;52.088;5.096;2023-03-20T00:17:04;10.10;99.90
65404;DHT22;52014;52.088;5.096;2023-03-20T00:19:33;10.10;99.90
65404;DHT22;52014;52.088;5.096;2023-03-20T00:21:59;10.10;99.90
65404;DHT22;52014;52.088;5.096;2023-03-20T00:24:24;10.10;99.90
65404;DHT22;52014;52.088;5.096;2023-03-20T00:26:50;10.10;99.90
65404;DHT22;52014;52.088;5.096;2023-03-20T00:31:41;10.10;99.90
65404;DHT22;52014;52.088;5.096;2023-03-20T00:34:11;10.10;99.90
65404;DHT22;52014;52.088;5.096;2023-03-20T00:36:37;10.00;99.90
65404;DHT22;52014;52.088;5.096;2023-03-20T00:39:02;10.10;99.90
65404;DHT22;52014;52.088;5.096;2023-03-20T00:41:30;10.00;99.90
65404;DHT22;52014;52.088;5.096;2023-03-20T00:43:59;10.00;99.90
65404;DHT22;52014;52.088;5.096;2023-03-20T00:46:26;10.10;99.90
65404;DHT22;52014;52.088;5.096;2023-03-20T00:48:52;10.00;99.90
65404;DHT22;52014;52.088;5.096;2023-03-20T00:51:20;10.00;99.90
65404;DHT22;52014;52.088;5.096;2023-03-20T00:53:45;10.00;99.90
65404;DHT22;52014;52.088;5.096;2023-03-20T00:56:19;10.00;99.90
65404;DHT22;52014;52.088;5.096;2023-03-20T00:58:51;10.00;99.90
65404;DHT22;52014;52.088;5.096;2023-03-20T01:01:16;10.00;99.90
65404;DHT22;52014;52.088;5.096;2023-03-20T01:03:42;10.00;99.90
65404;DHT22;52014;52.088;5.096;2023-03-20T01:06:08;10.00;99.90
65404;DHT22;52014;52.088;5.096;2023-03-20T01:08:36;9.90;99.90
65404;DHT22;52014;52.088;5.096;2023-03-20T01:11:02;9.90;99.90
65404;DHT22;52014;52.088;5.096;2023-03-20T01:13:28;9.90;99.90
65404;DHT22;52014;52.088;5.096;2023-03-20T01:15:54;9.90;99.90
65404;DHT22;52014;52.088;5.096;2023-03-20T01:18:21;9.90;99.90
65404;DHT22;52014;52.088;5.096;2023-03-20T01:20:47;9.90;99.90
65404;DHT22;52014;52.088;5.096;2023-03-20T01:23:13;9.80;99.90
65404;DHT22;52014;52.088;5.096;2023-03-20T01:25:39;9.80;99.90
65404;DHT22;52014;52.088;5.096;2023-03-20T01:28:18;9.70;99.90
65404;DHT22;52014;52.088;5.096;2023-03-20T01:30:44;9.70;99.90
65404;DHT22;52014;52.088;5.096;2023-03-20T01:33:14;9.70;99.90
65404;DHT22;52014;52.088;5.096;2023-03-20T01:35:39;9.80;99.90
65404;DHT22;52014;52.088;5.096;2023-03-20T01:38:10;9.70;99.90
65404;DHT22;52014;52.088;5.096;2023-03-20T01:43:07;9.60;99.90
65404;DHT22;52014;52.088;5.096;2023-03-20T01:45:36;9.60;99.90
65404;DHT22;52014;52.088;5.096;2023-03-20T01:48:11;9.50;99.90
65404;DHT22;52014;52.088;5.096;2023-03-20T01:50:39;9.60;99.90
65404;DHT22;52014;52.088;5.096;2023-03-20T01:53:09;9.50;99.90
65404;DHT22;52014;52.088;5.096;2023-03-20T01:55:36;9.50;99.90
65404;DHT22;52014;52.088;5.096;2023-03-20T01:58:03;9.50;99.90
65404;DHT22;52014;52.088;5.096;2023-03-20T02:00:31;9.50;99.90
65404;DHT22;52014;52.088;5.096;2023-03-20T02:02:57;9.40;99.90
65404;DHT22;52014;52.088;5.096;2023-03-20T02:05:22;9.40;99.90
65404;DHT22;52014;52.088;5.096;2023-03-20T02:07:50;9.40;99.90
65404;DHT22;52014;52.088;5.096;2023-03-20T02:10:17;9.50;99.90
65404;DHT22;52014;52.088;5.096;2023-03-20T02:12:43;9.50;99.90
65404;DHT22;52014;52.088;5.096;2023-03-20T02:15:09;9.50;99.90
65404;DHT22;52014;52.088;5.096;2023-03-20T02:17:35;9.50;99.90
65404;DHT22;52014;52.088;5.096;2023-03-20T02:22:43;9.50;99.90
65404;DHT22;52014;52.088;5.096;2023-03-20T02:28:31;9.40;99.90
65404;DHT22;52014;52.088;5.096;2023-03-20T02:31:07;9.40;99.90
65404;DHT22;52014;52.088;5.096;2023-03-20T02:41:41;9.30;99.90
65404;DHT22;52014;52.088;5.096;2023-03-20T02:44:20;9.30;99.90
65404;DHT22;52014;52.088;5.096;2023-03-20T02:46:56;9.40;99.90
65404;DHT22;52014;52.088;5.096;2023-03-20T02:51:55;9.30;99.90
65404;DHT22;52014;52.088;5.096;2023-03-20T02:59:40;9.30;99.90
65404;DHT22;52014;52.088;5.096;2023-03-20T03:02:08;9.30;99.90
65404;DHT22;52014;52.088;5.096;2023-03-20T03:04:35;9.20;99.90
65404;DHT22;52014;52.088;5.096;2023-03-20T03:07:01;9.20;99.90
65404;DHT22;52014;52.088;5.096;2023-03-20T03:09:32;9.20;99.90
65404;DHT22;52014;52.088;5.096;2023-03-20T03:12:22;9.20;99.90
65404;DHT22;52014;52.088;5.096;2023-03-20T03:14:49;9.20;99.90
65404;DHT22;52014;52.088;5.096;2023-03-20T03:17:16;9.10;99.90
65404;DHT22;52014;52.088;5.096;2023-03-20T03:19:44;9.10;99.90
65404;DHT22;52014;52.088;5.096;2023-03-20T03:22:12;9.10;99.90
65404;DHT22;52014;52.088;5.096;2023-03-20T03:24:38;9.20;99.90
65404;DHT22;52014;52.088;5.096;2023-03-20T03:29:38;9.10;99.90
65404;DHT22;52014;52.088;5.096;2023-03-20T03:32:05;9.10;99.90
65404;DHT22;52014;52.088;5.096;2023-03-20T03:34:31;9.10;99.90
65404;DHT22;52014;52.088;5.096;2023-03-20T03:37:02;9.10;99.90
65404;DHT22;52014;52.088;5.096;2023-03-20T03:42:08;9.10;99.90
65404;DHT22;52014;52.088;5.096;2023-03-20T03:44:50;9.10;99.90
65404;DHT22;52014;52.088;5.096;2023-03-20T03:47:19;9.10;99.90
65404;DHT22;52014;52.088;5.096;2023-03-20T03:49:47;9.10;99.90
65404;DHT22;52014;52.088;5.096;2023-03-20T03:52:22;9.10;99.90
65404;DHT22;52014;52.088;5.096;2023-03-20T03:54:56;9.00;99.90
65404;DHT22;52014;52.088;5.096;2023-03-20T03:57:33;9.10;99.90
65404;DHT22;52014;52.088;5.096;2023-03-20T03:59:59;9.00;99.90
65404;DHT22;52014;52.088;5.096;2023-03-20T04:02:26;9.00;99.90
65404;DHT22;52014;52.088;5.096;2023-03-20T04:04:51;9.00;99.90
65404;DHT22;52014;52.088;5.096;2023-03-20T04:07:17;9.00;99.90
65404;DHT22;52014;52.088;5.096;2023-03-20T04:09:43;8.90;99.90
65404;DHT22;52014;52.088;5.096;2023-03-20T04:12:20;8.90;99.90
65404;DHT22;52014;52.088;5.096;2023-03-20T04:14:53;8.90;99.90
65404;DHT22;52014;52.088;5.096;2023-03-20T04:17:19;8.90;99.90
65404;DHT22;52014;52.088;5.096;2023-03-20T04:19:44;8.90;99.90
65404;DHT22;52014;52.088;5.096;2023-03-20T04:22:09;8.80;99.90
65404;DHT22;52014;52.088;5.096;2023-03-20T04:24:35;8.80;99.90
65404;DHT22;52014;52.088;5.096;2023-03-20T04:27:00;8.90;99.90
65404;DHT22;52014;52.088;5.096;2023-03-20T04:29:26;8.90;99.90
65404;DHT22;52014;52.088;5.096;2023-03-20T04:31:51;8.90;99.90
65404;DHT22;52014;52.088;5.096;2023-03-20T04:34:17;8.90;99.90
65404;DHT22;52014;52.088;5.096;2023-03-20T04:36:42;8.90;99.90
65404;DHT22;52014;52.088;5.096;2023-03-20T04:39:08;8.90;99.90
65404;DHT22;52014;52.088;5.096;2023-03-20T04:41:33;8.80;99.90
65404;DHT22;52014;52.088;5.096;2023-03-20T04:43:59;8.80;99.90
65404;DHT22;52014;52.088;5.096;2023-03-20T04:46:24;8.80;99.90
65404;DHT22;52014;52.088;5.096;2023-03-20T04:48:50;8.80;99.90
65404;DHT22;52014;52.088;5.096;2023-03-20T04:51:15;8.70;99.90
65404;DHT22;52014;52.088;5.096;2023-03-20T04:53:41;8.80;99.90
65404;DHT22;52014;52.088;5.096;2023-03-20T04:56:06;8.90;99.90
65404;DHT22;52014;52.088;5.096;2023-03-20T04:58:32;8.90;99.90
65404;DHT22;52014;52.088;5.096;2023-03-20T05:01:00;8.90;99.90
65404;DHT22;52014;52.088;5.096;2023-03-20T05:03:25;8.90;99.90
65404;DHT22;52014;52.088;5.096;2023-03-20T05:05:52;8.90;99.90
65404;DHT22;52014;52.088;5.096;2023-03-20T05:08:17;8.90;99.90
65404;DHT22;52014;52.088;5.096;2023-03-20T05:10:42;8.90;99.90
65404;DHT22;52014;52.088;5.096;2023-03-20T05:13:09;8.90;99.90
65404;DHT22;52014;52.088;5.096;2023-03-20T05:15:35;8.80;99.90
65404;DHT22;52014;52.088;5.096;2023-03-20T05:18:00;8.80;99.90
65404;DHT22;52014;52.088;5.096;2023-03-20T05:20:26;8.90;99.90
65404;DHT22;52014;52.088;5.096;2023-03-20T05:22:51;8.90;99.90
65404;DHT22;52014;52.088;5.096;2023-03-20T05:25:17;8.80;99.90
65404;DHT22;52014;52.088;5.096;2023-03-20T05:27:43;8.90;99.90
65404;DHT22;52014;52.088;5.096;2023-03-20T05:30:09;8.90;99.90
65404;DHT22;52014;52.088;5.096;2023-03-20T05:32:34;8.90;99.90
65404;DHT22;52014;52.088;5.096;2023-03-20T05:35:01;8.90;99.90
65404;DHT22;52014;52.088;5.096;2023-03-20T05:37:26;8.90;99.90
65404;DHT22;52014;52.088;5.096;2023-03-20T05:39:51;8.80;99.90
65404;DHT22;52014;52.088;5.096;2023-03-20T05:42:17;8.80;99.90
65404;DHT22;52014;52.088;5.096;2023-03-20T05:44:42;8.80;99.90
65404;DHT22;52014;52.088;5.096;2023-03-20T05:47:08;8.90;99.90
65404;DHT22;52014;52.088;5.096;2023-03-20T05:49:33;8.80;99.90
65404;DHT22;52014;52.088;5.096;2023-03-20T05:51:59;8.80;99.90
65404;DHT22;52014;52.088;5.096;2023-03-20T05:54:24;8.90;99.90
65404;DHT22;52014;52.088;5.096;2023-03-20T05:56:50;8.90;99.90
65404;DHT22;52014;52.088;5.096;2023-03-20T05:59:15;8.90;99.90
65404;DHT22;52014;52.088;5.096;2023-03-20T06:01:40;8.90;99.90
65404;DHT22;52014;52.088;5.096;2023-03-20T06:04:06;8.80;99.90
65404;DHT22;52014;52.088;5.096;2023-03-20T06:06:32;8.80;99.90
65404;DHT22;52014;52.088;5.096;2023-03-20T06:09:02;8.90;99.90
65404;DHT22;52014;52.088;5.096;2023-03-20T06:11:28;8.90;99.90
65404;DHT22;52014;52.088;5.096;2023-03-20T06:13:53;8.80;99.90
65404;DHT22;52014;52.088;5.096;2023-03-20T06:16:20;8.80;99.90
65404;DHT22;52014;52.088;5.096;2023-03-20T06:18:47;8.80;99.90
65404;DHT22;52014;52.088;5.096;2023-03-20T06:21:13;8.80;99.90
65404;DHT22;52014;52.088;5.096;2023-03-20T06:23:39;8.90;99.90
65404;DHT22;52014;52.088;5.096;2023-03-20T06:26:04;8.90;99.90
65404;DHT22;52014;52.088;5.096;2023-03-20T06:28:30;8.80;99.90
65404;DHT22;52014;52.088;5.096;2023-03-20T06:30:56;8.90;99.90
65404;DHT22;52014;52.088;5.096;2023-03-20T06:33:21;8.90;99.90
65404;DHT22;52014;52.088;5.096;2023-03-20T06:35:47;8.80;99.90
65404;DHT22;52014;52.088;5.096;2023-03-20T06:38:13;8.90;99.90
65404;DHT22;52014;52.088;5.096;2023-03-20T06:40:39;8.90;99.90
65404;DHT22;52014;52.088;5.096;2023-03-20T06:43:05;8.80;99.90
65404;DHT22;52014;52.088;5.096;2023-03-20T06:45:32;8.90;99.90
65404;DHT22;52014;52.088;5.096;2023-03-20T06:47:58;8.90;99.90
65404;DHT22;52014;52.088;5.096;2023-03-20T06:50:23;8.90;99.90
65404;DHT22;52014;52.088;5.096;2023-03-20T06:52:52;8.80;99.90
65404;DHT22;52014;52.088;5.096;2023-03-20T06:55:18;8.80;99.90
65404;DHT22;52014;52.088;5.096;2023-03-20T06:57:43;8.90;99.90
65404;DHT22;52014;52.088;5.096;2023-03-20T07:00:09;8.90;99.90
65404;DHT22;52014;52.088;5.096;2023-03-20T07:02:35;8.90;99.90
65404;DHT22;52014;52.088;5.096;2023-03-20T07:05:00;8.90;99.90
65404;DHT22;52014;52.088;5.096;2023-03-20T07:07:26;8.90;99.90
65404;DHT22;52014;52.088;5.096;2023-03-20T07:09:51;8.90;99.90
65404;DHT22;52014;52.088;5.096;2023-03-20T07:12:17;8.90;99.90
65404;DHT22;52014;52.088;5.096;2023-03-20T07:14:44;8.80;99.90
65404;DHT22;52014;52.088;5.096;2023-03-20T07:17:10;8.90;99.90
65404;DHT22;52014;52.088;5.096;2023-03-20T07:19:36;9.00;99.90
65404;DHT22;52014;52.088;5.096;2023-03-20T07:22:04;9.00;99.90
65404;DHT22;52014;52.088;5.096;2023-03-20T07:24:30;8.90;99.90
65404;DHT22;52014;52.088;5.096;2023-03-20T07:26:57;8.90;99.90
65404;DHT22;52014;52.088;5.096;2023-03-20T07:29:22;8.90;99.90
65404;DHT22;52014;52.088;5.096;2023-03-20T07:31:48;9.00;99.90
65404;DHT22;52014;52.088;5.096;2023-03-20T07:34:13;9.00;99.90
65404;DHT22;52014;52.088;5.096;2023-03-20T07:36:39;9.00;99.90
65404;DHT22;52014;52.088;5.096;2023-03-20T07:39:06;9.00;99.90
65404;DHT22;52014;52.088;5.096;2023-03-20T07:41:32;9.00;99.90
65404;DHT22;52014;52.088;5.096;2023-03-20T07:43:58;9.10;99.90
65404;DHT22;52014;52.088;5.096;2023-03-20T07:46:24;9.10;99.90
65404;DHT22;52014;52.088;5.096;2023-03-20T07:48:50;8.90;99.90
65404;DHT22;52014;52.088;5.096;2023-03-20T07:51:16;9.00;99.90
65404;DHT22;52014;52.088;5.096;2023-03-20T07:53:41;9.10;99.90
65404;DHT22;52014;52.088;5.096;2023-03-20T07:56:07;9.10;99.90
65404;DHT22;52014;52.088;5.096;2023-03-20T07:58:32;9.10;99.90
65404;DHT22;52014;52.088;5.096;2023-03-20T08:00:58;9.20;99.90
65404;DHT22;52014;52.088;5.096;2023-03-20T08:03:23;9.30;99.90
65404;DHT22;52014;52.088;5.096;2023-03-20T08:05:49;9.20;99.90
65404;DHT22;52014;52.088;5.096;2023-03-20T08:08:15;9.20;99.90
65404;DHT22;52014;52.088;5.096;2023-03-20T08:10:40;9.30;99.90
65404;DHT22;52014;52.088;5.096;2023-03-20T08:13:06;9.30;99.90
65404;DHT22;52014;52.088;5.096;2023-03-20T08:15:31;9.30;99.90
65404;DHT22;52014;52.088;5.096;2023-03-20T08:17:57;9.40;99.90
65404;DHT22;52014;52.088;5.096;2023-03-20T08:20:23;9.40;99.90
65404;DHT22;52014;52.088;5.096;2023-03-20T08:22:48;9.40;99.90
65404;DHT22;52014;52.088;5.096;2023-03-20T08:25:14;9.40;99.90
65404;DHT22;52014;52.088;5.096;2023-03-20T08:27:40;9.40;99.90
65404;DHT22;52014;52.088;5.096;2023-03-20T08:30:06;9.50;99.90
65404;DHT22;52014;52.088;5.096;2023-03-20T08:32:33;9.40;99.90
65404;DHT22;52014;52.088;5.096;2023-03-20T08:34:58;9.40;99.90
65404;DHT22;52014;52.088;5.096;2023-03-20T08:37:24;9.50;99.90
65404;DHT22;52014;52.088;5.096;2023-03-20T08:39:49;9.40;99.90
65404;DHT22;52014;52.088;5.096;2023-03-20T08:42:14;9.50;99.90
65404;DHT22;52014;52.088;5.096;2023-03-20T08:44:40;9.50;99.90
65404;DHT22;52014;52.088;5.096;2023-03-20T08:47:05;9.50;99.90
65404;DHT22;52014;52.088;5.096;2023-03-20T08:49:32;9.50;99.90
65404;DHT22;52014;52.088;5.096;2023-03-20T08:51:58;9.50;99.90
65404;DHT22;52014;52.088;5.096;2023-03-20T08:54:23;9.50;99.90
65404;DHT22;52014;52.088;5.096;2023-03-20T08:56:49;9.50;99.90
65404;DHT22;52014;52.088;5.096;2023-03-20T08:59:15;9.50;99.90
65404;DHT22;52014;52.088;5.096;2023-03-20T09:01:40;9.50;99.90
65404;DHT22;52014;52.088;5.096;2023-03-20T09:04:06;9.50;99.90
65404;DHT22;52014;52.088;5.096;2023-03-20T09:06:34;9.60;99.90
65404;DHT22;52014;52.088;5.096;2023-03-20T09:09:00;9.70;99.90
65404;DHT22;52014;52.088;5.096;2023-03-20T09:11:25;9.70;99.90
65404;DHT22;52014;52.088;5.096;2023-03-20T09:13:51;9.70;99.90
65404;DHT22;52014;52.088;5.096;2023-03-20T09:16:16;9.80;99.90
65404;DHT22;52014;52.088;5.096;2023-03-20T09:18:42;9.80;99.90
65404;DHT22;52014;52.088;5.096;2023-03-20T09:21:07;9.80;99.90
65404;DHT22;52014;52.088;5.096;2023-03-20T09:23:33;9.80;99.90
65404;DHT22;52014;52.088;5.096;2023-03-20T09:25:58;9.80;99.90
65404;DHT22;52014;52.088;5.096;2023-03-20T09:28:24;9.90;99.90
65404;DHT22;52014;52.088;5.096;2023-03-20T09:30:53;10.00;99.90
65404;DHT22;52014;52.088;5.096;2023-03-20T09:33:19;10.20;99.90
65404;DHT22;52014;52.088;5.096;2023-03-20T09:35:45;10.20;99.90
65404;DHT22;52014;52.088;5.096;2023-03-20T09:38:11;10.20;99.90
65404;DHT22;52014;52.088;5.096;2023-03-20T09:43:12;10.00;99.90
65404;DHT22;52014;52.088;5.096;2023-03-20T09:45:52;10.10;99.90
65404;DHT22;52014;52.088;5.096;2023-03-20T09:48:32;10.10;99.90
65404;DHT22;52014;52.088;5.096;2023-03-20T09:51:07;10.20;99.90
65404;DHT22;52014;52.088;5.096;2023-03-20T09:53:38;10.30;99.90
65404;DHT22;52014;52.088;5.096;2023-03-20T09:56:05;10.30;99.90
65404;DHT22;52014;52.088;5.096;2023-03-20T09:58:35;10.50;99.90
65404;DHT22;52014;52.088;5.096;2023-03-20T10:01:02;10.50;99.90
65404;DHT22;52014;52.088;5.096;2023-03-20T10:03:31;10.50;99.90
65404;DHT22;52014;52.088;5.096;2023-03-20T10:06:04;10.60;99.90
65404;DHT22;52014;52.088;5.096;2023-03-20T10:08:33;10.60;99.90
65404;DHT22;52014;52.088;5.096;2023-03-20T10:11:05;10.50;99.90
65404;DHT22;52014;52.088;5.096;2023-03-20T10:16:23;10.50;99.90
65404;DHT22;52014;52.088;5.096;2023-03-20T10:18:56;10.50;99.90
65404;DHT22;52014;52.088;5.096;2023-03-20T10:21:28;10.50;99.90
65404;DHT22;52014;52.088;5.096;2023-03-20T10:24:02;10.60;99.90
65404;DHT22;52014;52.088;5.096;2023-03-20T10:26:28;10.60;99.90
65404;DHT22;52014;52.088;5.096;2023-03-20T10:28:56;10.50;99.90
65404;DHT22;52014;52.088;5.096;2023-03-20T10:36:38;10.60;99.90
65404;DHT22;52014;52.088;5.096;2023-03-20T10:39:14;10.70;99.90
65404;DHT22;52014;52.088;5.096;2023-03-20T10:41:44;10.70;99.90
65404;DHT22;52014;52.088;5.096;2023-03-20T10:44:15;10.60;99.90
65404;DHT22;52014;52.088;5.096;2023-03-20T10:46:43;10.70;99.90
65404;DHT22;52014;52.088;5.096;2023-03-20T10:49:22;10.60;99.90
65404;DHT22;52014;52.088;5.096;2023-03-20T10:51:57;10.60;99.90
65404;DHT22;52014;52.088;5.096;2023-03-20T10:54:34;10.60;99.90
65404;DHT22;52014;52.088;5.096;2023-03-20T10:57:02;10.60;99.90
65404;DHT22;52014;52.088;5.096;2023-03-20T10:59:30;10.50;99.90
65404;DHT22;52014;52.088;5.096;2023-03-20T11:02:19;10.60;99.90
65404;DHT22;52014;52.088;5.096;2023-03-20T11:04:45;10.60;99.90
65404;DHT22;52014;52.088;5.096;2023-03-20T11:07:14;10.60;99.90
65404;DHT22;52014;52.088;5.096;2023-03-20T11:09:40;10.60;99.90
65404;DHT22;52014;52.088;5.096;2023-03-20T11:12:12;10.50;99.90
65404;DHT22;52014;52.088;5.096;2023-03-20T11:14:42;10.50;99.90
65404;DHT22;52014;52.088;5.096;2023-03-20T11:17:08;10.50;99.90
65404;DHT22;52014;52.088;5.096;2023-03-20T11:19:35;10.50;99.90
65404;DHT22;52014;52.088;5.096;2023-03-20T11:22:08;10.60;99.90
65404;DHT22;52014;52.088;5.096;2023-03-20T11:24:39;10.60;99.90
65404;DHT22;52014;52.088;5.096;2023-03-20T11:27:06;10.60;99.90
65404;DHT22;52014;52.088;5.096;2023-03-20T11:29:33;10.70;99.90
65404;DHT22;52014;52.088;5.096;2023-03-20T11:32:03;10.80;99.90
65404;DHT22;52014;52.088;5.096;2023-03-20T11:34:49;10.70;99.90
65404;DHT22;52014;52.088;5.096;2023-03-20T11:37:25;10.80;99.90
65404;DHT22;52014;52.088;5.096;2023-03-20T11:40:15;10.80;99.90
65404;DHT22;52014;52.088;5.096;2023-03-20T11:42:38;10.70;99.90
65404;DHT22;52014;52.088;5.096;2023-03-20T11:45:15;10.80;99.90
65404;DHT22;52014;52.088;5.096;2023-03-20T11:47:41;10.90;99.90
65404;DHT22;52014;52.088;5.096;2023-03-20T11:55:43;11.00;99.90
65404;DHT22;52014;52.088;5.096;2023-03-20T11:58:13;10.90;99.90
65404;DHT22;52014;52.088;5.096;2023-03-20T12:00:41;11.00;99.90
65404;DHT22;52014;52.088;5.096;2023-03-20T12:05:51;11.00;99.90
65404;DHT22;52014;52.088;5.096;2023-03-20T12:08:24;10.90;99.90
65404;DHT22;52014;52.088;5.096;2023-03-20T12:10:54;10.90;99.90
65404;DHT22;52014;52.088;5.096;2023-03-20T12:13:23;10.90;99.90
65404;DHT22;52014;52.088;5.096;2023-03-20T12:15:51;10.80;99.90
65404;DHT22;52014;52.088;5.096;2023-03-20T12:18:27;10.70;99.90
65404;DHT22;52014;52.088;5.096;2023-03-20T12:21:13;10.70;99.90
65404;DHT22;52014;52.088;5.096;2023-03-20T12:23:43;10.80;99.90
65404;DHT22;52014;52.088;5.096;2023-03-20T12:26:11;10.70;99.90
65404;DHT22;52014;52.088;5.096;2023-03-20T12:28:53;10.70;99.90
65404;DHT22;52014;52.088;5.096;2023-03-20T12:31:43;10.70;99.90
65404;DHT22;52014;52.088;5.096;2023-03-20T12:36:41;10.70;99.90
65404;DHT22;52014;52.088;5.096;2023-03-20T12:39:12;10.70;99.90
65404;DHT22;52014;52.088;5.096;2023-03-20T12:46:34;10.60;99.90
65404;DHT22;52014;52.088;5.096;2023-03-20T12:49:07;10.70;99.90
65404;DHT22;52014;52.088;5.096;2023-03-20T12:51:41;10.70;99.90
65404;DHT22;52014;52.088;5.096;2023-03-20T12:57:00;10.80;99.90
65404;DHT22;52014;52.088;5.096;2023-03-20T13:04:35;10.90;99.90
65404;DHT22;52014;52.088;5.096;2023-03-20T13:07:06;10.80;99.90
65404;DHT22;52014;52.088;5.096;2023-03-20T13:09:42;10.80;99.90
65404;DHT22;52014;52.088;5.096;2023-03-20T13:15:13;10.70;99.90
65404;DHT22;52014;52.088;5.096;2023-03-20T13:17:45;10.60;99.90
65404;DHT22;52014;52.088;5.096;2023-03-20T13:22:50;10.70;99.90
65404;DHT22;52014;52.088;5.096;2023-03-20T13:25:23;10.80;99.90
65404;DHT22;52014;52.088;5.096;2023-03-20T13:28:02;10.70;99.90
65404;DHT22;52014;52.088;5.096;2023-03-20T13:30:33;10.70;99.90
65404;DHT22;52014;52.088;5.096;2023-03-20T13:38:09;10.70;99.90
65404;DHT22;52014;52.088;5.096;2023-03-20T13:40:39;10.70;99.90
65404;DHT22;52014;52.088;5.096;2023-03-20T13:45:43;10.70;99.90
65404;DHT22;52014;52.088;5.096;2023-03-20T13:53:29;10.80;99.90
65404;DHT22;52014;52.088;5.096;2023-03-20T13:56:04;10.70;99.90
65404;DHT22;52014;52.088;5.096;2023-03-20T14:03:44;10.80;99.90
65404;DHT22;52014;52.088;5.096;2023-03-20T14:08:54;10.70;99.90
65404;DHT22;52014;52.088;5.096;2023-03-20T14:13:55;10.70;99.90
65404;DHT22;52014;52.088;5.096;2023-03-20T14:16:21;10.60;99.90
65404;DHT22;52014;52.088;5.096;2023-03-20T14:18:48;10.70;99.90
65404;DHT22;52014;52.088;5.096;2023-03-20T14:21:17;10.70;99.90
65404;DHT22;52014;52.088;5.096;2023-03-20T14:23:44;10.80;99.90
65404;DHT22;52014;52.088;5.096;2023-03-20T14:31:35;10.70;99.90
65404;DHT22;52014;52.088;5.096;2023-03-20T14:41:53;10.70;99.90
65404;DHT22;52014;52.088;5.096;2023-03-20T14:44:43;10.70;99.90
65404;DHT22;52014;52.088;5.096;2023-03-20T14:52:32;10.80;99.90
65404;DHT22;52014;52.088;5.096;2023-03-20T14:57:39;10.80;99.90
65404;DHT22;52014;52.088;5.096;2023-03-20T15:00:05;10.80;99.90
65404;DHT22;52014;52.088;5.096;2023-03-20T15:02:35;10.70;99.90
65404;DHT22;52014;52.088;5.096;2023-03-20T15:05:01;10.80;99.90
65404;DHT22;52014;52.088;5.096;2023-03-20T15:07:27;10.80;99.90
65404;DHT22;52014;52.088;5.096;2023-03-20T15:09:54;10.80;99.90
65404;DHT22;52014;52.088;5.096;2023-03-20T15:12:24;10.70;99.90
65404;DHT22;52014;52.088;5.096;2023-03-20T15:14:52;10.80;99.90
65404;DHT22;52014;52.088;5.096;2023-03-20T15:17:23;10.80;99.90
65404;DHT22;52014;52.088;5.096;2023-03-20T15:19:49;10.70;99.90
65404;DHT22;52014;52.088;5.096;2023-03-20T15:22:16;10.80;99.90
65404;DHT22;52014;52.088;5.096;2023-03-20T15:24:44;10.90;99.90
65404;DHT22;52014;52.088;5.096;2023-03-20T15:27:15;10.80;99.90
65404;DHT22;52014;52.088;5.096;2023-03-20T15:29:43;10.90;99.90
65404;DHT22;52014;52.088;5.096;2023-03-20T15:32:10;10.90;99.90
65404;DHT22;52014;52.088;5.096;2023-03-20T15:34:36;11.00;99.90
65404;DHT22;52014;52.088;5.096;2023-03-20T15:37:02;10.90;99.90
65404;DHT22;52014;52.088;5.096;2023-03-20T15:39:29;10.90;99.90
65404;DHT22;52014;52.088;5.096;2023-03-20T15:42:08;10.90;99.90
65404;DHT22;52014;52.088;5.096;2023-03-20T15:44:37;10.90;99.90
65404;DHT22;52014;52.088;5.096;2023-03-20T15:47:11;10.90;99.90
65404;DHT22;52014;52.088;5.096;2023-03-20T15:49:39;10.90;99.90
65404;DHT22;52014;52.088;5.096;2023-03-20T15:52:06;10.90;99.90
65404;DHT22;52014;52.088;5.096;2023-03-20T15:54:32;10.90;99.90
65404;DHT22;52014;52.088;5.096;2023-03-20T15:56:58;10.90;99.90
65404;DHT22;52014;52.088;5.096;2023-03-20T15:59:26;11.00;99.90
65404;DHT22;52014;52.088;5.096;2023-03-20T16:01:53;11.00;99.90
65404;DHT22;52014;52.088;5.096;2023-03-20T16:04:19;10.90;99.90
65404;DHT22;52014;52.088;5.096;2023-03-20T16:06:52;11.00;99.90
65404;DHT22;52014;52.088;5.096;2023-03-20T16:09:18;10.90;99.90
65404;DHT22;52014;52.088;5.096;2023-03-20T16:11:47;11.00;99.90
65404;DHT22;52014;52.088;5.096;2023-03-20T16:14:18;11.00;99.90
65404;DHT22;52014;52.088;5.096;2023-03-20T16:16:45;11.00;99.90
65404;DHT22;52014;52.088;5.096;2023-03-20T16:19:11;11.00;99.90
65404;DHT22;52014;52.088;5.096;2023-03-20T16:21:39;10.90;99.90
65404;DHT22;52014;52.088;5.096;2023-03-20T16:24:09;11.00;99.90
65404;DHT22;52014;52.088;5.096;2023-03-20T16:26:41;10.90;99.90
65404;DHT22;52014;52.088;5.096;2023-03-20T16:29:08;10.90;99.90
65404;DHT22;52014;52.088;5.096;2023-03-20T16:31:35;11.00;99.90
65404;DHT22;52014;52.088;5.096;2023-03-20T16:34:07;11.00;99.90
65404;DHT22;52014;52.088;5.096;2023-03-20T16:36:34;11.00;99.90
65404;DHT22;52014;52.088;5.096;2023-03-20T16:41:36;11.00;99.90
65404;DHT22;52014;52.088;5.096;2023-03-20T16:44:05;11.00;99.90
65404;DHT22;52014;52.088;5.096;2023-03-20T16:46:32;11.00;99.90
65404;DHT22;52014;52.088;5.096;2023-03-20T16:49:13;10.90;99.90
65404;DHT22;52014;52.088;5.096;2023-03-20T16:51:43;11.00;99.90
65404;DHT22;52014;52.088;5.096;2023-03-20T16:54:12;11.00;99.90
65404;DHT22;52014;52.088;5.096;2023-03-20T16:56:42;11.00;99.90
65404;DHT22;52014;52.088;5.096;2023-03-20T16:59:16;11.00;99.90
65404;DHT22;52014;52.088;5.096;2023-03-20T17:01:43;11.00;99.90
65404;DHT22;52014;52.088;5.096;2023-03-20T17:04:13;11.00;99.90
65404;DHT22;52014;52.088;5.096;2023-03-20T17:06:42;11.00;99.90
65404;DHT22;52014;52.088;5.096;2023-03-20T17:11:37;11.00;99.90
65404;DHT22;52014;52.088;5.096;2023-03-20T17:14:03;11.10;99.90
65404;DHT22;52014;52.088;5.096;2023-03-20T17:16:29;11.00;99.90
65404;DHT22;52014;52.088;5.096;2023-03-20T17:21:23;11.10;99.90
65404;DHT22;52014;52.088;5.096;2023-03-20T17:23:49;11.00;99.90
65404;DHT22;52014;52.088;5.096;2023-03-20T17:26:14;11.00;99.90
65404;DHT22;52014;52.088;5.096;2023-03-20T17:28:40;11.00;99.90
65404;DHT22;52014;52.088;5.096;2023-03-20T17:31:12;11.10;99.90
65404;DHT22;52014;52.088;5.096;2023-03-20T17:33:38;11.10;99.90
65404;DHT22;52014;52.088;5.096;2023-03-20T17:36:04;11.00;99.90
65404;DHT22;52014;52.088;5.096;2023-03-20T17:38:34;11.10;99.90
65404;DHT22;52014;52.088;5.096;2023-03-20T17:41:00;11.10;99.90
65404;DHT22;52014;52.088;5.096;2023-03-20T17:43:25;11.10;99.90
65404;DHT22;52014;52.088;5.096;2023-03-20T17:45:51;11.10;99.90
65404;DHT22;52014;52.088;5.096;2023-03-20T17:48:17;11.10;99.90